sensor_id;sensor_type;location;lat;lon;timestamp;P1;durP1;ratioP1;P2;durP2;ratioP2
31091;SDS011;67728;53.122;12.776;2023-06-05T00:00:14;297.87;;;68.43;;
31091;SDS011;67728;53.122;12.776;2023-06-05T00:01:46;299.27;;;72.93;;
31091;SDS011;67728;53.122;12.776;2023-06-05T00:03:18;298.00;;;66.83;;
31091;SDS011;67728;53.122;12.776;2023-06-05T00:04:50;305.47;;;86.53;;
31091;SDS011;67728;53.122;12.776;2023-06-05T00:06:22;293.30;;;66.40;;
31091;SDS011;67728;53.122;12.776;2023-06-05T00:07:53;297.20;;;67.13;;
31091;SDS011;67728;53.122;12.776;2023-06-05T00:09:25;299.27;;;66.63;;
31091;SDS011;67728;53.122;12.776;2023-06-05T00:10:56;299.27;;;70.13;;
31091;SDS011;67728;53.122;12.776;2023-06-05T00:12:28;304.97;;;80.20;;
31091;SDS011;67728;53.122;12.776;2023-06-05T00:14:01;304.70;;;82.90;;
31091;SDS011;67728;53.122;12.776;2023-06-05T00:15:33;304.63;;;74.50;;
31091;SDS011;67728;53.122;12.776;2023-06-05T00:17:05;303.67;;;86.10;;
31091;SDS011;67728;53.122;12.776;2023-06-05T00:18:39;301.30;;;75.50;;
31091;SDS011;67728;53.122;12.776;2023-06-05T00:20:11;305.53;;;88.50;;
31091;SDS011;67728;53.122;12.776;2023-06-05T00:21:43;303.07;;;82.40;;
31091;SDS011;67728;53.122;12.776;2023-06-05T00:23:15;294.97;;;66.27;;
31091;SDS011;67728;53.122;12.776;2023-06-05T00:24:46;311.50;;;96.27;;
31091;SDS011;67728;53.122;12.776;2023-06-05T00:26:17;300.63;;;74.60;;
31091;SDS011;67728;53.122;12.776;2023-06-05T00:27:49;295.87;;;66.00;;
31091;SDS011;67728;53.122;12.776;2023-06-05T00:29:22;296.20;;;67.00;;
31091;SDS011;67728;53.122;12.776;2023-06-05T00:30:56;296.50;;;67.63;;
31091;SDS011;67728;53.122;12.776;2023-06-05T00:32:28;298.73;;;65.43;;
31091;SDS011;67728;53.122;12.776;2023-06-05T00:34:00;299.37;;;67.27;;
31091;SDS011;67728;53.122;12.776;2023-06-05T00:35:31;299.50;;;63.83;;
31091;SDS011;67728;53.122;12.776;2023-06-05T00:37:05;295.60;;;66.40;;
31091;SDS011;67728;53.122;12.776;2023-06-05T00:38:37;291.67;;;62.83;;
31091;SDS011;67728;53.122;12.776;2023-06-05T00:40:09;300.93;;;77.43;;
31091;SDS011;67728;53.122;12.776;2023-06-05T00:41:42;305.83;;;88.37;;
31091;SDS011;67728;53.122;12.776;2023-06-05T00:43:14;307.03;;;84.33;;
31091;SDS011;67728;53.122;12.776;2023-06-05T00:44:48;297.80;;;74.03;;
31091;SDS011;67728;53.122;12.776;2023-06-05T00:46:19;299.77;;;74.93;;
31091;SDS011;67728;53.122;12.776;2023-06-05T00:47:51;297.13;;;70.23;;
31091;SDS011;67728;53.122;12.776;2023-06-05T00:49:23;304.73;;;85.90;;
31091;SDS011;67728;53.122;12.776;2023-06-05T00:50:54;301.53;;;81.97;;
31091;SDS011;67728;53.122;12.776;2023-06-05T00:52:27;298.13;;;76.97;;
31091;SDS011;67728;53.122;12.776;2023-06-05T00:53:59;301.43;;;79.00;;
31091;SDS011;67728;53.122;12.776;2023-06-05T00:55:31;302.13;;;77.53;;
31091;SDS011;67728;53.122;12.776;2023-06-05T00:57:04;298.77;;;75.10;;
31091;SDS011;67728;53.122;12.776;2023-06-05T00:58:37;294.37;;;70.93;;
31091;SDS011;67728;53.122;12.776;2023-06-05T01:00:10;296.93;;;71.70;;
31091;SDS011;67728;53.122;12.776;2023-06-05T01:01:44;294.60;;;69.57;;
31091;SDS011;67728;53.122;12.776;2023-06-05T01:03:15;293.33;;;66.83;;
31091;SDS011;67728;53.122;12.776;2023-06-05T01:04:48;289.13;;;61.43;;
31091;SDS011;67728;53.122;12.776;2023-06-05T01:06:21;289.77;;;60.03;;
31091;SDS011;67728;53.122;12.776;2023-06-05T01:07:52;292.07;;;61.87;;
31091;SDS011;67728;53.122;12.776;2023-06-05T01:09:24;296.43;;;64.93;;
31091;SDS011;67728;53.122;12.776;2023-06-05T01:10:56;292.33;;;60.00;;
31091;SDS011;67728;53.122;12.776;2023-06-05T01:12:33;292.37;;;63.40;;
31091;SDS011;67728;53.122;12.776;2023-06-05T01:14:11;296.80;;;62.57;;
31091;SDS011;67728;53.122;12.776;2023-06-05T01:15:52;295.47;;;62.73;;
31091;SDS011;67728;53.122;12.776;2023-06-05T01:17:24;299.30;;;62.73;;
31091;SDS011;67728;53.122;12.776;2023-06-05T01:18:59;296.07;;;65.00;;
31091;SDS011;67728;53.122;12.776;2023-06-05T01:20:33;302.83;;;65.43;;
31091;SDS011;67728;53.122;12.776;2023-06-05T01:22:05;297.13;;;61.23;;
31091;SDS011;67728;53.122;12.776;2023-06-05T01:23:38;295.87;;;60.97;;
31091;SDS011;67728;53.122;12.776;2023-06-05T01:25:14;296.40;;;61.37;;
31091;SDS011;67728;53.122;12.776;2023-06-05T01:26:48;296.60;;;60.90;;
31091;SDS011;67728;53.122;12.776;2023-06-05T01:28:31;296.30;;;61.60;;
31091;SDS011;67728;53.122;12.776;2023-06-05T01:30:04;298.60;;;61.77;;
31091;SDS011;67728;53.122;12.776;2023-06-05T01:31:41;295.40;;;60.37;;
31091;SDS011;67728;53.122;12.776;2023-06-05T01:33:17;298.70;;;61.90;;
31091;SDS011;67728;53.122;12.776;2023-06-05T01:34:55;302.67;;;63.13;;
31091;SDS011;67728;53.122;12.776;2023-06-05T01:36:28;305.30;;;65.10;;
31091;SDS011;67728;53.122;12.776;2023-06-05T01:38:02;305.93;;;63.43;;
31091;SDS011;67728;53.122;12.776;2023-06-05T01:39:37;308.53;;;64.87;;
31091;SDS011;67728;53.122;12.776;2023-06-05T01:41:09;319.87;;;65.10;;
31091;SDS011;67728;53.122;12.776;2023-06-05T01:42:42;316.50;;;64.07;;
31091;SDS011;67728;53.122;12.776;2023-06-05T01:44:14;313.90;;;63.57;;
31091;SDS011;67728;53.122;12.776;2023-06-05T01:45:48;315.07;;;64.53;;
31091;SDS011;67728;53.122;12.776;2023-06-05T01:47:20;313.57;;;65.43;;
31091;SDS011;67728;53.122;12.776;2023-06-05T01:48:52;306.97;;;64.47;;
31091;SDS011;67728;53.122;12.776;2023-06-05T01:50:24;303.17;;;62.90;;
31091;SDS011;67728;53.122;12.776;2023-06-05T01:51:57;315.17;;;64.50;;
31091;SDS011;67728;53.122;12.776;2023-06-05T01:53:28;318.37;;;64.50;;
31091;SDS011;67728;53.122;12.776;2023-06-05T01:55:02;312.70;;;63.30;;
31091;SDS011;67728;53.122;12.776;2023-06-05T01:56:34;315.40;;;64.70;;
31091;SDS011;67728;53.122;12.776;2023-06-05T01:58:07;311.63;;;68.00;;
31091;SDS011;67728;53.122;12.776;2023-06-05T01:59:37;312.67;;;62.87;;
31091;SDS011;67728;53.122;12.776;2023-06-05T02:01:09;313.97;;;63.57;;
31091;SDS011;67728;53.122;12.776;2023-06-05T02:02:41;313.60;;;63.50;;
31091;SDS011;67728;53.122;12.776;2023-06-05T02:04:11;311.93;;;63.73;;
31091;SDS011;67728;53.122;12.776;2023-06-05T02:05:46;309.27;;;63.87;;
31091;SDS011;67728;53.122;12.776;2023-06-05T02:07:18;310.87;;;63.77;;
31091;SDS011;67728;53.122;12.776;2023-06-05T02:08:51;311.33;;;64.10;;
31091;SDS011;67728;53.122;12.776;2023-06-05T02:10:23;314.00;;;64.33;;
31091;SDS011;67728;53.122;12.776;2023-06-05T02:11:55;309.53;;;63.27;;
31091;SDS011;67728;53.122;12.776;2023-06-05T02:13:28;308.43;;;63.67;;
31091;SDS011;67728;53.122;12.776;2023-06-05T02:14:59;306.47;;;62.70;;
31091;SDS011;67728;53.122;12.776;2023-06-05T02:16:31;304.30;;;62.17;;
31091;SDS011;67728;53.122;12.776;2023-06-05T02:18:03;304.87;;;62.47;;
31091;SDS011;67728;53.122;12.776;2023-06-05T02:19:34;303.10;;;60.80;;
31091;SDS011;67728;53.122;12.776;2023-06-05T02:21:06;303.50;;;62.47;;
31091;SDS011;67728;53.122;12.776;2023-06-05T02:22:36;304.90;;;63.10;;
31091;SDS011;67728;53.122;12.776;2023-06-05T02:24:08;304.77;;;63.10;;
31091;SDS011;67728;53.122;12.776;2023-06-05T02:25:42;300.17;;;60.00;;
31091;SDS011;67728;53.122;12.776;2023-06-05T02:27:13;299.83;;;60.53;;
31091;SDS011;67728;53.122;12.776;2023-06-05T02:28:46;299.27;;;60.20;;
31091;SDS011;67728;53.122;12.776;2023-06-05T02:30:17;303.53;;;64.07;;
31091;SDS011;67728;53.122;12.776;2023-06-05T02:31:48;299.03;;;61.43;;
31091;SDS011;67728;53.122;12.776;2023-06-05T02:33:20;302.03;;;63.37;;
31091;SDS011;67728;53.122;12.776;2023-06-05T02:34:51;300.53;;;62.67;;
31091;SDS011;67728;53.122;12.776;2023-06-05T02:36:23;300.27;;;62.47;;
31091;SDS011;67728;53.122;12.776;2023-06-05T02:37:56;299.03;;;62.67;;
31091;SDS011;67728;53.122;12.776;2023-06-05T02:39:27;299.20;;;62.10;;
31091;SDS011;67728;53.122;12.776;2023-06-05T02:41:02;312.40;;;63.13;;
31091;SDS011;67728;53.122;12.776;2023-06-05T02:42:34;316.13;;;67.63;;
31091;SDS011;67728;53.122;12.776;2023-06-05T02:44:05;335.87;;;68.23;;
31091;SDS011;67728;53.122;12.776;2023-06-05T02:45:37;334.13;;;69.20;;
31091;SDS011;67728;53.122;12.776;2023-06-05T02:47:07;319.10;;;64.63;;
31091;SDS011;67728;53.122;12.776;2023-06-05T02:48:39;303.30;;;60.47;;
31091;SDS011;67728;53.122;12.776;2023-06-05T02:50:11;307.33;;;60.97;;
31091;SDS011;67728;53.122;12.776;2023-06-05T02:51:43;307.93;;;60.73;;
31091;SDS011;67728;53.122;12.776;2023-06-05T02:53:15;308.30;;;62.03;;
31091;SDS011;67728;53.122;12.776;2023-06-05T02:54:47;323.83;;;65.70;;
31091;SDS011;67728;53.122;12.776;2023-06-05T02:56:19;303.83;;;61.17;;
31091;SDS011;67728;53.122;12.776;2023-06-05T02:57:51;313.73;;;61.57;;
31091;SDS011;67728;53.122;12.776;2023-06-05T02:59:23;314.43;;;61.20;;
31091;SDS011;67728;53.122;12.776;2023-06-05T03:00:54;336.97;;;65.57;;
31091;SDS011;67728;53.122;12.776;2023-06-05T03:02:31;309.97;;;60.97;;
31091;SDS011;67728;53.122;12.776;2023-06-05T03:04:02;308.10;;;60.33;;
31091;SDS011;67728;53.122;12.776;2023-06-05T03:05:34;306.30;;;64.50;;
31091;SDS011;67728;53.122;12.776;2023-06-05T03:07:06;308.13;;;62.77;;
31091;SDS011;67728;53.122;12.776;2023-06-05T03:08:39;300.90;;;61.97;;
31091;SDS011;67728;53.122;12.776;2023-06-05T03:10:11;300.80;;;62.63;;
31091;SDS011;67728;53.122;12.776;2023-06-05T03:11:43;310.83;;;82.43;;
31091;SDS011;67728;53.122;12.776;2023-06-05T03:13:15;313.43;;;88.33;;
31091;SDS011;67728;53.122;12.776;2023-06-05T03:14:46;304.10;;;68.33;;
31091;SDS011;67728;53.122;12.776;2023-06-05T03:16:17;308.10;;;72.13;;
31091;SDS011;67728;53.122;12.776;2023-06-05T03:17:49;306.03;;;64.33;;
31091;SDS011;67728;53.122;12.776;2023-06-05T03:19:20;299.03;;;61.73;;
31091;SDS011;67728;53.122;12.776;2023-06-05T03:20:52;304.10;;;67.07;;
31091;SDS011;67728;53.122;12.776;2023-06-05T03:22:25;323.57;;;108.47;;
31091;SDS011;67728;53.122;12.776;2023-06-05T03:23:57;311.20;;;76.10;;
31091;SDS011;67728;53.122;12.776;2023-06-05T03:25:28;299.43;;;60.67;;
31091;SDS011;67728;53.122;12.776;2023-06-05T03:27:01;304.47;;;61.87;;
31091;SDS011;67728;53.122;12.776;2023-06-05T03:28:34;304.83;;;64.77;;
31091;SDS011;67728;53.122;12.776;2023-06-05T03:30:08;303.80;;;62.13;;
31091;SDS011;67728;53.122;12.776;2023-06-05T03:31:41;300.30;;;63.53;;
31091;SDS011;67728;53.122;12.776;2023-06-05T03:33:14;300.27;;;62.63;;
31091;SDS011;67728;53.122;12.776;2023-06-05T03:34:47;312.13;;;64.30;;
31091;SDS011;67728;53.122;12.776;2023-06-05T03:36:18;301.33;;;61.20;;
31091;SDS011;67728;53.122;12.776;2023-06-05T03:37:50;299.57;;;60.80;;
31091;SDS011;67728;53.122;12.776;2023-06-05T03:39:22;302.83;;;63.53;;
31091;SDS011;67728;53.122;12.776;2023-06-05T03:40:52;306.87;;;72.60;;
31091;SDS011;67728;53.122;12.776;2023-06-05T03:42:26;300.20;;;61.60;;
31091;SDS011;67728;53.122;12.776;2023-06-05T03:43:57;301.73;;;61.77;;
31091;SDS011;67728;53.122;12.776;2023-06-05T03:45:28;313.33;;;65.17;;
31091;SDS011;67728;53.122;12.776;2023-06-05T03:47:00;297.77;;;60.13;;
31091;SDS011;67728;53.122;12.776;2023-06-05T03:48:32;302.70;;;62.87;;
31091;SDS011;67728;53.122;12.776;2023-06-05T03:50:04;303.90;;;63.93;;
31091;SDS011;67728;53.122;12.776;2023-06-05T03:51:36;301.27;;;60.40;;
31091;SDS011;67728;53.122;12.776;2023-06-05T03:53:09;303.67;;;61.40;;
31091;SDS011;67728;53.122;12.776;2023-06-05T03:54:43;304.47;;;60.60;;
31091;SDS011;67728;53.122;12.776;2023-06-05T03:56:17;319.13;;;64.23;;
31091;SDS011;67728;53.122;12.776;2023-06-05T03:57:50;312.60;;;62.70;;
31091;SDS011;67728;53.122;12.776;2023-06-05T03:59:22;313.57;;;63.70;;
31091;SDS011;67728;53.122;12.776;2023-06-05T04:00:55;312.93;;;62.90;;
31091;SDS011;67728;53.122;12.776;2023-06-05T04:02:27;303.30;;;60.53;;
31091;SDS011;67728;53.122;12.776;2023-06-05T04:03:58;306.37;;;61.27;;
31091;SDS011;67728;53.122;12.776;2023-06-05T04:05:30;303.53;;;60.67;;
31091;SDS011;67728;53.122;12.776;2023-06-05T04:07:01;301.00;;;59.10;;
31091;SDS011;67728;53.122;12.776;2023-06-05T04:08:33;300.60;;;58.67;;
31091;SDS011;67728;53.122;12.776;2023-06-05T04:10:05;304.93;;;59.77;;
31091;SDS011;67728;53.122;12.776;2023-06-05T04:11:38;301.73;;;59.87;;
31091;SDS011;67728;53.122;12.776;2023-06-05T04:13:12;303.73;;;69.60;;
31091;SDS011;67728;53.122;12.776;2023-06-05T04:14:43;301.27;;;60.07;;
31091;SDS011;67728;53.122;12.776;2023-06-05T04:16:16;319.03;;;62.77;;
31091;SDS011;67728;53.122;12.776;2023-06-05T04:17:47;301.10;;;63.13;;
31091;SDS011;67728;53.122;12.776;2023-06-05T04:19:18;298.17;;;60.23;;
31091;SDS011;67728;53.122;12.776;2023-06-05T04:20:50;302.43;;;58.97;;
31091;SDS011;67728;53.122;12.776;2023-06-05T04:22:22;304.27;;;59.17;;
31091;SDS011;67728;53.122;12.776;2023-06-05T04:23:52;301.00;;;62.63;;
31091;SDS011;67728;53.122;12.776;2023-06-05T04:25:24;305.00;;;58.70;;
31091;SDS011;67728;53.122;12.776;2023-06-05T04:26:59;300.03;;;61.23;;
31091;SDS011;67728;53.122;12.776;2023-06-05T04:28:33;301.10;;;59.77;;
31091;SDS011;67728;53.122;12.776;2023-06-05T04:30:05;301.20;;;62.50;;
31091;SDS011;67728;53.122;12.776;2023-06-05T04:31:38;304.53;;;60.33;;
31091;SDS011;67728;53.122;12.776;2023-06-05T04:33:11;302.20;;;61.93;;
31091;SDS011;67728;53.122;12.776;2023-06-05T04:34:42;301.30;;;61.13;;
31091;SDS011;67728;53.122;12.776;2023-06-05T04:36:15;306.10;;;60.53;;
31091;SDS011;67728;53.122;12.776;2023-06-05T04:37:48;333.63;;;66.27;;
31091;SDS011;67728;53.122;12.776;2023-06-05T04:39:20;312.93;;;61.93;;
31091;SDS011;67728;53.122;12.776;2023-06-05T04:40:52;305.37;;;59.77;;
31091;SDS011;67728;53.122;12.776;2023-06-05T04:42:23;309.27;;;61.63;;
31091;SDS011;67728;53.122;12.776;2023-06-05T04:43:56;310.17;;;61.43;;
31091;SDS011;67728;53.122;12.776;2023-06-05T04:45:27;307.60;;;61.63;;
31091;SDS011;67728;53.122;12.776;2023-06-05T04:46:59;310.63;;;61.63;;
31091;SDS011;67728;53.122;12.776;2023-06-05T04:48:31;306.60;;;62.67;;
31091;SDS011;67728;53.122;12.776;2023-06-05T04:50:05;310.90;;;63.70;;
31091;SDS011;67728;53.122;12.776;2023-06-05T04:51:37;306.40;;;61.20;;
31091;SDS011;67728;53.122;12.776;2023-06-05T04:53:09;307.03;;;61.33;;
31091;SDS011;67728;53.122;12.776;2023-06-05T04:54:41;305.00;;;60.57;;
31091;SDS011;67728;53.122;12.776;2023-06-05T04:56:12;306.20;;;61.67;;
31091;SDS011;67728;53.122;12.776;2023-06-05T04:57:44;310.13;;;63.17;;
31091;SDS011;67728;53.122;12.776;2023-06-05T04:59:18;307.57;;;62.10;;
31091;SDS011;67728;53.122;12.776;2023-06-05T05:00:49;350.97;;;71.70;;
31091;SDS011;67728;53.122;12.776;2023-06-05T05:02:21;312.20;;;63.53;;
31091;SDS011;67728;53.122;12.776;2023-06-05T05:03:53;308.63;;;62.13;;
31091;SDS011;67728;53.122;12.776;2023-06-05T05:05:25;309.07;;;62.70;;
31091;SDS011;67728;53.122;12.776;2023-06-05T05:06:56;312.73;;;64.07;;
31091;SDS011;67728;53.122;12.776;2023-06-05T05:08:31;316.20;;;64.53;;
31091;SDS011;67728;53.122;12.776;2023-06-05T05:10:03;311.27;;;63.97;;
31091;SDS011;67728;53.122;12.776;2023-06-05T05:11:36;328.90;;;67.40;;
31091;SDS011;67728;53.122;12.776;2023-06-05T05:13:08;310.87;;;64.07;;
31091;SDS011;67728;53.122;12.776;2023-06-05T05:14:41;311.77;;;63.67;;
31091;SDS011;67728;53.122;12.776;2023-06-05T05:16:14;311.17;;;63.63;;
31091;SDS011;67728;53.122;12.776;2023-06-05T05:17:46;314.47;;;64.83;;
31091;SDS011;67728;53.122;12.776;2023-06-05T05:19:18;322.00;;;64.83;;
31091;SDS011;67728;53.122;12.776;2023-06-05T05:20:51;312.07;;;63.57;;
31091;SDS011;67728;53.122;12.776;2023-06-05T05:22:23;311.93;;;64.40;;
31091;SDS011;67728;53.122;12.776;2023-06-05T05:23:55;319.97;;;67.93;;
31091;SDS011;67728;53.122;12.776;2023-06-05T05:25:27;331.87;;;69.00;;
31091;SDS011;67728;53.122;12.776;2023-06-05T05:26:59;316.67;;;67.80;;
31091;SDS011;67728;53.122;12.776;2023-06-05T05:28:31;326.63;;;66.60;;
31091;SDS011;67728;53.122;12.776;2023-06-05T05:30:05;322.07;;;67.53;;
31091;SDS011;67728;53.122;12.776;2023-06-05T05:31:37;323.07;;;66.67;;
31091;SDS011;67728;53.122;12.776;2023-06-05T05:33:09;318.97;;;66.20;;
31091;SDS011;67728;53.122;12.776;2023-06-05T05:34:41;336.73;;;70.57;;
31091;SDS011;67728;53.122;12.776;2023-06-05T05:36:13;310.47;;;64.70;;
31091;SDS011;67728;53.122;12.776;2023-06-05T05:37:45;336.37;;;75.10;;
31091;SDS011;67728;53.122;12.776;2023-06-05T05:39:16;314.70;;;67.70;;
31091;SDS011;67728;53.122;12.776;2023-06-05T05:40:47;319.00;;;67.90;;
31091;SDS011;67728;53.122;12.776;2023-06-05T05:42:19;311.37;;;67.47;;
31091;SDS011;67728;53.122;12.776;2023-06-05T05:43:51;316.67;;;69.20;;
31091;SDS011;67728;53.122;12.776;2023-06-05T05:45:24;318.33;;;70.27;;
31091;SDS011;67728;53.122;12.776;2023-06-05T05:46:55;326.93;;;71.60;;
31091;SDS011;67728;53.122;12.776;2023-06-05T05:48:27;321.40;;;71.03;;
31091;SDS011;67728;53.122;12.776;2023-06-05T05:49:59;316.27;;;70.03;;
31091;SDS011;67728;53.122;12.776;2023-06-05T05:51:30;313.13;;;69.33;;
31091;SDS011;67728;53.122;12.776;2023-06-05T05:53:03;311.33;;;69.00;;
31091;SDS011;67728;53.122;12.776;2023-06-05T05:54:35;312.90;;;69.77;;
31091;SDS011;67728;53.122;12.776;2023-06-05T05:56:07;314.40;;;71.73;;
31091;SDS011;67728;53.122;12.776;2023-06-05T05:57:39;312.13;;;71.20;;
31091;SDS011;67728;53.122;12.776;2023-06-05T05:59:11;312.37;;;71.33;;
31091;SDS011;67728;53.122;12.776;2023-06-05T06:00:44;312.77;;;70.90;;
31091;SDS011;67728;53.122;12.776;2023-06-05T06:02:15;320.93;;;74.90;;
31091;SDS011;67728;53.122;12.776;2023-06-05T06:03:47;317.17;;;74.13;;
31091;SDS011;67728;53.122;12.776;2023-06-05T06:05:19;313.77;;;72.33;;
31091;SDS011;67728;53.122;12.776;2023-06-05T06:06:51;317.60;;;75.50;;
31091;SDS011;67728;53.122;12.776;2023-06-05T06:08:22;320.70;;;76.00;;
31091;SDS011;67728;53.122;12.776;2023-06-05T06:09:55;317.77;;;75.93;;
31091;SDS011;67728;53.122;12.776;2023-06-05T06:11:26;318.17;;;77.40;;
31091;SDS011;67728;53.122;12.776;2023-06-05T06:12:58;318.67;;;76.73;;
31091;SDS011;67728;53.122;12.776;2023-06-05T06:14:30;317.57;;;77.23;;
31091;SDS011;67728;53.122;12.776;2023-06-05T06:16:03;317.60;;;77.97;;
31091;SDS011;67728;53.122;12.776;2023-06-05T06:17:35;321.87;;;79.77;;
31091;SDS011;67728;53.122;12.776;2023-06-05T06:19:07;317.00;;;78.43;;
31091;SDS011;67728;53.122;12.776;2023-06-05T06:20:44;316.87;;;78.87;;
31091;SDS011;67728;53.122;12.776;2023-06-05T06:22:17;322.33;;;80.13;;
31091;SDS011;67728;53.122;12.776;2023-06-05T06:23:49;318.53;;;79.97;;
31091;SDS011;67728;53.122;12.776;2023-06-05T06:25:20;317.67;;;80.07;;
31091;SDS011;67728;53.122;12.776;2023-06-05T06:26:56;319.10;;;81.23;;
31091;SDS011;67728;53.122;12.776;2023-06-05T06:28:28;319.13;;;79.60;;
31091;SDS011;67728;53.122;12.776;2023-06-05T06:30:00;318.70;;;82.30;;
31091;SDS011;67728;53.122;12.776;2023-06-05T06:31:33;317.10;;;82.73;;
31091;SDS011;67728;53.122;12.776;2023-06-05T06:33:05;319.07;;;83.90;;
31091;SDS011;67728;53.122;12.776;2023-06-05T06:34:37;317.47;;;83.40;;
31091;SDS011;67728;53.122;12.776;2023-06-05T06:36:09;319.33;;;85.13;;
31091;SDS011;67728;53.122;12.776;2023-06-05T06:37:42;319.70;;;83.83;;
31091;SDS011;67728;53.122;12.776;2023-06-05T06:39:15;316.63;;;83.43;;
31091;SDS011;67728;53.122;12.776;2023-06-05T06:40:46;318.20;;;86.27;;
31091;SDS011;67728;53.122;12.776;2023-06-05T06:42:18;318.40;;;86.17;;
31091;SDS011;67728;53.122;12.776;2023-06-05T06:43:50;315.67;;;84.90;;
31091;SDS011;67728;53.122;12.776;2023-06-05T06:45:21;314.67;;;85.87;;
31091;SDS011;67728;53.122;12.776;2023-06-05T06:46:54;316.27;;;86.13;;
31091;SDS011;67728;53.122;12.776;2023-06-05T06:48:26;316.50;;;88.57;;
31091;SDS011;67728;53.122;12.776;2023-06-05T06:49:58;316.73;;;88.47;;
31091;SDS011;67728;53.122;12.776;2023-06-05T06:51:30;328.00;;;107.27;;
31091;SDS011;67728;53.122;12.776;2023-06-05T06:53:02;314.37;;;88.10;;
31091;SDS011;67728;53.122;12.776;2023-06-05T06:54:34;315.13;;;89.00;;
31091;SDS011;67728;53.122;12.776;2023-06-05T06:56:08;314.07;;;88.70;;
31091;SDS011;67728;53.122;12.776;2023-06-05T06:57:39;315.83;;;90.07;;
31091;SDS011;67728;53.122;12.776;2023-06-05T06:59:11;326.00;;;92.13;;
31091;SDS011;67728;53.122;12.776;2023-06-05T07:00:43;313.00;;;87.83;;
31091;SDS011;67728;53.122;12.776;2023-06-05T07:02:17;313.87;;;91.20;;
31091;SDS011;67728;53.122;12.776;2023-06-05T07:03:50;317.37;;;89.43;;
31091;SDS011;67728;53.122;12.776;2023-06-05T07:05:22;310.77;;;86.90;;
31091;SDS011;67728;53.122;12.776;2023-06-05T07:06:54;307.87;;;91.57;;
31091;SDS011;67728;53.122;12.776;2023-06-05T07:08:26;309.67;;;91.27;;
31091;SDS011;67728;53.122;12.776;2023-06-05T07:09:58;314.90;;;92.57;;
31091;SDS011;67728;53.122;12.776;2023-06-05T07:11:30;312.77;;;92.57;;
31091;SDS011;67728;53.122;12.776;2023-06-05T07:13:01;313.10;;;92.50;;
31091;SDS011;67728;53.122;12.776;2023-06-05T07:14:33;314.03;;;94.50;;
31091;SDS011;67728;53.122;12.776;2023-06-05T07:16:05;312.77;;;96.70;;
31091;SDS011;67728;53.122;12.776;2023-06-05T07:17:38;316.00;;;98.47;;
31091;SDS011;67728;53.122;12.776;2023-06-05T07:19:09;317.27;;;107.17;;
31091;SDS011;67728;53.122;12.776;2023-06-05T07:20:41;318.57;;;110.30;;
31091;SDS011;67728;53.122;12.776;2023-06-05T07:22:13;316.93;;;109.80;;
31091;SDS011;67728;53.122;12.776;2023-06-05T07:23:46;314.60;;;114.00;;
31091;SDS011;67728;53.122;12.776;2023-06-05T07:25:21;314.73;;;114.67;;
31091;SDS011;67728;53.122;12.776;2023-06-05T07:26:55;314.23;;;115.23;;
31091;SDS011;67728;53.122;12.776;2023-06-05T07:28:28;313.13;;;109.20;;
31091;SDS011;67728;53.122;12.776;2023-06-05T07:30:00;315.00;;;112.97;;
31091;SDS011;67728;53.122;12.776;2023-06-05T07:31:32;310.23;;;110.13;;
31091;SDS011;67728;53.122;12.776;2023-06-05T07:33:08;316.30;;;122.47;;
31091;SDS011;67728;53.122;12.776;2023-06-05T07:34:40;312.10;;;120.17;;
31091;SDS011;67728;53.122;12.776;2023-06-05T07:36:13;317.17;;;131.23;;
31091;SDS011;67728;53.122;12.776;2023-06-05T07:37:45;317.77;;;128.47;;
31091;SDS011;67728;53.122;12.776;2023-06-05T07:39:20;324.00;;;135.80;;
31091;SDS011;67728;53.122;12.776;2023-06-05T07:40:52;312.23;;;123.23;;
31091;SDS011;67728;53.122;12.776;2023-06-05T07:42:23;317.20;;;135.20;;
31091;SDS011;67728;53.122;12.776;2023-06-05T07:43:55;325.83;;;146.87;;
31091;SDS011;67728;53.122;12.776;2023-06-05T07:45:27;322.53;;;148.53;;
31091;SDS011;67728;53.122;12.776;2023-06-05T07:46:59;321.90;;;140.47;;
31091;SDS011;67728;53.122;12.776;2023-06-05T07:48:32;323.63;;;134.35;;
31091;SDS011;67728;53.122;12.776;2023-06-05T07:50:05;321.30;;;134.02;;
31091;SDS011;67728;53.122;12.776;2023-06-05T07:51:37;320.77;;;131.75;;
31091;SDS011;67728;53.122;12.776;2023-06-05T07:53:09;327.75;;;134.65;;
31091;SDS011;67728;53.122;12.776;2023-06-05T07:54:41;321.20;;;131.95;;
31091;SDS011;67728;53.122;12.776;2023-06-05T07:56:13;325.08;;;145.10;;
31091;SDS011;67728;53.122;12.776;2023-06-05T07:57:46;321.10;;;132.27;;
31091;SDS011;67728;53.122;12.776;2023-06-05T07:59:18;337.90;;;148.95;;
31091;SDS011;67728;53.122;12.776;2023-06-05T08:01:04;329.95;;;140.27;;
31091;SDS011;67728;53.122;12.776;2023-06-05T08:02:37;325.23;;;136.85;;
31091;SDS011;67728;53.122;12.776;2023-06-05T08:04:10;331.27;;;146.15;;
31091;SDS011;67728;53.122;12.776;2023-06-05T08:05:42;329.42;;;138.93;;
31091;SDS011;67728;53.122;12.776;2023-06-05T08:07:13;325.25;;;139.15;;
31091;SDS011;67728;53.122;12.776;2023-06-05T08:08:45;325.83;;;138.82;;
31091;SDS011;67728;53.122;12.776;2023-06-05T08:10:17;323.35;;;132.93;;
31091;SDS011;67728;53.122;12.776;2023-06-05T08:11:48;321.38;;;133.88;;
31091;SDS011;67728;53.122;12.776;2023-06-05T08:13:20;320.77;;;143.65;;
31091;SDS011;67728;53.122;12.776;2023-06-05T08:14:52;322.23;;;135.48;;
31091;SDS011;67728;53.122;12.776;2023-06-05T08:16:24;328.50;;;152.85;;
31091;SDS011;67728;53.122;12.776;2023-06-05T08:17:55;322.70;;;140.35;;
31091;SDS011;67728;53.122;12.776;2023-06-05T08:19:28;323.00;;;143.32;;
31091;SDS011;67728;53.122;12.776;2023-06-05T08:21:00;320.42;;;143.48;;
31091;SDS011;67728;53.122;12.776;2023-06-05T08:22:32;320.23;;;143.23;;
31091;SDS011;67728;53.122;12.776;2023-06-05T08:24:04;322.10;;;144.88;;
31091;SDS011;67728;53.122;12.776;2023-06-05T08:25:36;319.95;;;144.85;;
31091;SDS011;67728;53.122;12.776;2023-06-05T08:27:08;326.20;;;152.65;;
31091;SDS011;67728;53.122;12.776;2023-06-05T08:28:40;321.80;;;147.05;;
31091;SDS011;67728;53.122;12.776;2023-06-05T08:30:13;324.08;;;147.10;;
31091;SDS011;67728;53.122;12.776;2023-06-05T08:31:44;326.75;;;151.13;;
31091;SDS011;67728;53.122;12.776;2023-06-05T08:33:16;328.17;;;153.95;;
31091;SDS011;67728;53.122;12.776;2023-06-05T08:34:50;327.08;;;148.77;;
31091;SDS011;67728;53.122;12.776;2023-06-05T08:36:22;325.80;;;150.50;;
31091;SDS011;67728;53.122;12.776;2023-06-05T08:37:54;324.55;;;151.95;;
31091;SDS011;67728;53.122;12.776;2023-06-05T08:39:25;329.80;;;155.40;;
31091;SDS011;67728;53.122;12.776;2023-06-05T08:41:02;325.65;;;154.25;;
31091;SDS011;67728;53.122;12.776;2023-06-05T08:42:37;321.42;;;146.07;;